sensor_id;sensor_type;location;lat;lon;timestamp;pressure;altitude;pressure_sealevel;temperature;humidity
71149;BME280;59072;42.144;25.200;2023-06-22T00:01:47;100296.31;;;22.25;84.85
71149;BME280;59072;42.144;25.200;2023-06-22T00:04:12;100296.25;;;22.06;85.91
71149;BME280;59072;42.144;25.200;2023-06-22T00:06:37;100293.59;;;22.25;85.23
71149;BME280;59072;42.144;25.200;2023-06-22T00:09:03;100302.19;;;21.84;88.29
71149;BME280;59072;42.144;25.200;2023-06-22T00:11:29;100304.91;;;21.84;88.08
71149;BME280;59072;42.144;25.200;2023-06-22T00:13:54;100307.16;;;21.77;88.48
71149;BME280;59072;42.144;25.200;2023-06-22T00:16:19;100300.59;;;21.83;87.49
71149;BME280;59072;42.144;25.200;2023-06-22T00:18:45;100297.69;;;21.74;88.69
71149;BME280;59072;42.144;25.200;2023-06-22T00:21:13;100305.53;;;21.17;92.07
71149;BME280;59072;42.144;25.200;2023-06-22T00:23:38;100304.16;;;21.49;91.65
71149;BME280;59072;42.144;25.200;2023-06-22T00:26:03;100306.66;;;21.75;89.80
71149;BME280;59072;42.144;25.200;2023-06-22T00:28:29;100316.88;;;21.83;88.27
71149;BME280;59072;42.144;25.200;2023-06-22T00:30:55;100321.81;;;21.52;90.28
71149;BME280;59072;42.144;25.200;2023-06-22T00:33:21;100321.81;;;21.76;88.21
71149;BME280;59072;42.144;25.200;2023-06-22T00:35:46;100323.91;;;21.84;88.45
71149;BME280;59072;42.144;25.200;2023-06-22T00:38:12;100330.97;;;21.85;89.02
71149;BME280;59072;42.144;25.200;2023-06-22T00:40:37;100322.75;;;21.90;88.79
71149;BME280;59072;42.144;25.200;2023-06-22T00:43:03;100319.41;;;21.98;87.76
71149;BME280;59072;42.144;25.200;2023-06-22T00:45:30;100314.66;;;21.61;89.78
71149;BME280;59072;42.144;25.200;2023-06-22T00:47:58;100305.19;;;21.58;88.46
71149;BME280;59072;42.144;25.200;2023-06-22T00:50:25;100311.66;;;21.62;87.85
71149;BME280;59072;42.144;25.200;2023-06-22T00:52:56;100322.59;;;21.52;88.21
71149;BME280;59072;42.144;25.200;2023-06-22T00:55:22;100325.16;;;21.67;88.25
71149;BME280;59072;42.144;25.200;2023-06-22T00:57:48;100320.78;;;21.72;87.59
71149;BME280;59072;42.144;25.200;2023-06-22T01:00:17;100321.94;;;21.31;90.37
71149;BME280;59072;42.144;25.200;2023-06-22T01:02:45;100317.56;;;21.01;93.26
71149;BME280;59072;42.144;25.200;2023-06-22T01:05:15;100325.28;;;20.83;94.07
71149;BME280;59072;42.144;25.200;2023-06-22T01:10:46;100331.31;;;21.15;91.40
71149;BME280;59072;42.144;25.200;2023-06-22T01:13:36;100321.28;;;21.10;91.39
71149;BME280;59072;42.144;25.200;2023-06-22T01:16:14;100322.59;;;21.18;91.21
71149;BME280;59072;42.144;25.200;2023-06-22T01:18:43;100317.78;;;20.70;95.43
71149;BME280;59072;42.144;25.200;2023-06-22T01:21:12;100331.09;;;20.51;96.42
71149;BME280;59072;42.144;25.200;2023-06-22T01:28:56;100320.88;;;20.38;98.89
71149;BME280;59072;42.144;25.200;2023-06-22T01:31:27;100301.06;;;20.47;98.99
71149;BME280;59072;42.144;25.200;2023-06-22T01:33:58;100301.81;;;20.63;95.84
71149;BME280;59072;42.144;25.200;2023-06-22T01:36:25;100312.94;;;20.57;97.98
71149;BME280;59072;42.144;25.200;2023-06-22T01:38:52;100308.69;;;20.40;97.79
71149;BME280;59072;42.144;25.200;2023-06-22T01:41:19;100293.53;;;20.39;100.00
71149;BME280;59072;42.144;25.200;2023-06-22T01:43:46;100309.88;;;20.74;96.83
71149;BME280;59072;42.144;25.200;2023-06-22T01:46:13;100312.59;;;20.74;95.02
71149;BME280;59072;42.144;25.200;2023-06-22T01:48:39;100322.28;;;20.85;93.91
71149;BME280;59072;42.144;25.200;2023-06-22T01:51:05;100312.34;;;20.70;93.95
71149;BME280;59072;42.144;25.200;2023-06-22T01:53:31;100306.09;;;20.70;93.58
71149;BME280;59072;42.144;25.200;2023-06-22T01:55:57;100307.28;;;20.48;95.24
71149;BME280;59072;42.144;25.200;2023-06-22T01:58:25;100283.44;;;20.50;94.95
71149;BME280;59072;42.144;25.200;2023-06-22T02:01:00;100302.41;;;20.50;96.66
71149;BME280;59072;42.144;25.200;2023-06-22T02:03:38;100299.41;;;20.62;95.20
71149;BME280;59072;42.144;25.200;2023-06-22T02:06:08;100306.56;;;20.32;98.37
71149;BME280;59072;42.144;25.200;2023-06-22T02:08:41;100301.56;;;19.90;100.00
71149;BME280;59072;42.144;25.200;2023-06-22T02:11:12;100323.91;;;20.26;100.00
71149;BME280;59072;42.144;25.200;2023-06-22T02:13:40;100315.41;;;20.48;98.85
71149;BME280;59072;42.144;25.200;2023-06-22T02:16:10;100315.69;;;20.52;97.12
71149;BME280;59072;42.144;25.200;2023-06-22T02:18:36;100322.16;;;20.56;98.44
71149;BME280;59072;42.144;25.200;2023-06-22T02:21:02;100330.00;;;20.57;97.78
71149;BME280;59072;42.144;25.200;2023-06-22T02:23:28;100331.94;;;20.46;97.39
71149;BME280;59072;42.144;25.200;2023-06-22T02:25:53;100339.53;;;20.50;97.35
71149;BME280;59072;42.144;25.200;2023-06-22T02:28:19;100326.97;;;20.04;100.00
71149;BME280;59072;42.144;25.200;2023-06-22T02:30:44;100328.66;;;19.79;100.00
71149;BME280;59072;42.144;25.200;2023-06-22T02:33:10;100325.97;;;19.74;100.00
71149;BME280;59072;42.144;25.200;2023-06-22T02:35:35;100335.13;;;19.83;100.00
71149;BME280;59072;42.144;25.200;2023-06-22T02:38:02;100336.47;;;19.91;100.00
71149;BME280;59072;42.144;25.200;2023-06-22T02:40:31;100342.69;;;19.92;100.00
71149;BME280;59072;42.144;25.200;2023-06-22T02:42:57;100339.22;;;19.60;100.00
71149;BME280;59072;42.144;25.200;2023-06-22T02:45:26;100333.81;;;19.76;100.00
71149;BME280;59072;42.144;25.200;2023-06-22T02:47:52;100340.28;;;19.85;100.00
71149;BME280;59072;42.144;25.200;2023-06-22T02:50:17;100348.97;;;19.77;100.00
71149;BME280;59072;42.144;25.200;2023-06-22T02:52:43;100335.16;;;19.68;100.00
71149;BME280;59072;42.144;25.200;2023-06-22T02:55:08;100350.28;;;19.69;100.00
71149;BME280;59072;42.144;25.200;2023-06-22T02:57:34;100348.41;;;19.44;100.00
71149;BME280;59072;42.144;25.200;2023-06-22T02:59:59;100346.78;;;19.48;100.00
71149;BME280;59072;42.144;25.200;2023-06-22T03:02:25;100347.06;;;19.82;99.42
71149;BME280;59072;42.144;25.200;2023-06-22T03:04:52;100352.16;;;20.04;98.90
71149;BME280;59072;42.144;25.200;2023-06-22T03:07:20;100350.75;;;20.12;97.35
71149;BME280;59072;42.144;25.200;2023-06-22T03:09:45;100346.41;;;20.16;96.72
71149;BME280;59072;42.144;25.200;2023-06-22T03:12:11;100360.81;;;20.01;98.96
71149;BME280;59072;42.144;25.200;2023-06-22T03:14:37;100347.59;;;19.54;100.00
71149;BME280;59072;42.144;25.200;2023-06-22T03:17:04;100349.22;;;19.91;100.00
71149;BME280;59072;42.144;25.200;2023-06-22T03:19:30;100360.72;;;20.32;99.40
71149;BME280;59072;42.144;25.200;2023-06-22T03:22:00;100364.53;;;20.31;98.50
71149;BME280;59072;42.144;25.200;2023-06-22T03:24:26;100361.22;;;20.50;98.07
71149;BME280;59072;42.144;25.200;2023-06-22T03:26:53;100353.72;;;20.16;99.87
71149;BME280;59072;42.144;25.200;2023-06-22T03:29:20;100358.59;;;20.24;100.00
71149;BME280;59072;42.144;25.200;2023-06-22T03:31:45;100360.72;;;20.32;98.80
71149;BME280;59072;42.144;25.200;2023-06-22T03:34:10;100359.13;;;20.31;97.87
71149;BME280;59072;42.144;25.200;2023-06-22T03:36:36;100372.13;;;20.29;96.00
71149;BME280;59072;42.144;25.200;2023-06-22T03:39:01;100363.00;;;20.04;99.63
71149;BME280;59072;42.144;25.200;2023-06-22T03:41:27;100355.31;;;20.32;99.07
71149;BME280;59072;42.144;25.200;2023-06-22T03:43:52;100363.44;;;20.32;97.04
71149;BME280;59072;42.144;25.200;2023-06-22T03:46:18;100362.59;;;20.42;97.16
71149;BME280;59072;42.144;25.200;2023-06-22T03:48:45;100357.63;;;20.64;96.03
71149;BME280;59072;42.144;25.200;2023-06-22T03:51:10;100353.59;;;20.52;95.88
71149;BME280;59072;42.144;25.200;2023-06-22T03:53:35;100346.00;;;20.64;94.26
71149;BME280;59072;42.144;25.200;2023-06-22T03:56:01;100361.66;;;20.72;94.59
71149;BME280;59072;42.144;25.200;2023-06-22T03:58:26;100353.41;;;20.93;93.11
71149;BME280;59072;42.144;25.200;2023-06-22T04:00:53;100357.19;;;20.92;92.36
71149;BME280;59072;42.144;25.200;2023-06-22T04:03:18;100349.78;;;21.07;91.43
71149;BME280;59072;42.144;25.200;2023-06-22T04:05:44;100345.22;;;21.03;90.72
71149;BME280;59072;42.144;25.200;2023-06-22T04:08:10;100350.38;;;21.04;91.80
71149;BME280;59072;42.144;25.200;2023-06-22T04:10:36;100343.09;;;20.95;92.98
71149;BME280;59072;42.144;25.200;2023-06-22T04:13:01;100357.91;;;21.13;90.28
71149;BME280;59072;42.144;25.200;2023-06-22T04:15:27;100365.03;;;21.38;88.96
71149;BME280;59072;42.144;25.200;2023-06-22T04:17:54;100361.25;;;21.34;88.92
71149;BME280;59072;42.144;25.200;2023-06-22T04:20:20;100359.53;;;21.48;87.62
71149;BME280;59072;42.144;25.200;2023-06-22T04:22:45;100361.41;;;21.53;86.02
71149;BME280;59072;42.144;25.200;2023-06-22T04:25:11;100370.69;;;21.41;86.87
71149;BME280;59072;42.144;25.200;2023-06-22T04:27:36;100370.84;;;21.21;90.47
71149;BME280;59072;42.144;25.200;2023-06-22T04:30:06;100369.66;;;21.37;89.53
71149;BME280;59072;42.144;25.200;2023-06-22T04:32:32;100366.03;;;21.52;90.37
71149;BME280;59072;42.144;25.200;2023-06-22T04:34:58;100369.72;;;21.61;88.07
71149;BME280;59072;42.144;25.200;2023-06-22T04:37:25;100379.59;;;21.81;85.58
71149;BME280;59072;42.144;25.200;2023-06-22T04:39:51;100378.69;;;21.91;85.15
71149;BME280;59072;42.144;25.200;2023-06-22T04:42:16;100367.59;;;21.87;86.70
71149;BME280;59072;42.144;25.200;2023-06-22T04:44:42;100377.03;;;21.95;86.14
71149;BME280;59072;42.144;25.200;2023-06-22T04:47:07;100385.63;;;22.02;84.66
71149;BME280;59072;42.144;25.200;2023-06-22T04:49:36;100376.84;;;22.11;84.66
71149;BME280;59072;42.144;25.200;2023-06-22T04:52:06;100397.28;;;22.32;84.52
71149;BME280;59072;42.144;25.200;2023-06-22T04:54:33;100392.72;;;22.27;83.10
71149;BME280;59072;42.144;25.200;2023-06-22T04:57:00;100397.41;;;22.46;83.37
71149;BME280;59072;42.144;25.200;2023-06-22T04:59:27;100381.72;;;22.62;83.28
71149;BME280;59072;42.144;25.200;2023-06-22T05:02:02;100381.72;;;22.62;83.22
71149;BME280;59072;42.144;25.200;2023-06-22T05:04:29;100392.06;;;23.03;78.92
71149;BME280;59072;42.144;25.200;2023-06-22T05:06:56;100394.59;;;22.94;79.67
71149;BME280;59072;42.144;25.200;2023-06-22T05:09:22;100390.66;;;23.05;80.82
71149;BME280;59072;42.144;25.200;2023-06-22T05:11:47;100390.84;;;22.90;80.33
71149;BME280;59072;42.144;25.200;2023-06-22T05:14:13;100396.91;;;23.06;80.71
71149;BME280;59072;42.144;25.200;2023-06-22T05:16:41;100395.16;;;23.15;80.11
71149;BME280;59072;42.144;25.200;2023-06-22T05:19:07;100391.25;;;23.21;80.03
71149;BME280;59072;42.144;25.200;2023-06-22T05:21:32;100393.16;;;23.40;79.21
71149;BME280;59072;42.144;25.200;2023-06-22T05:23:58;100389.00;;;23.42;79.94
71149;BME280;59072;42.144;25.200;2023-06-22T05:26:29;100396.22;;;23.52;78.79
71149;BME280;59072;42.144;25.200;2023-06-22T05:28:56;100391.91;;;23.65;78.82
71149;BME280;59072;42.144;25.200;2023-06-22T05:31:21;100387.47;;;23.69;76.93
71149;BME280;59072;42.144;25.200;2023-06-22T05:33:48;100385.91;;;23.49;79.40
71149;BME280;59072;42.144;25.200;2023-06-22T05:36:13;100390.38;;;23.59;79.63
71149;BME280;59072;42.144;25.200;2023-06-22T05:38:39;100392.47;;;23.81;77.68
71149;BME280;59072;42.144;25.200;2023-06-22T05:41:05;100393.41;;;24.04;76.57
71149;BME280;59072;42.144;25.200;2023-06-22T05:43:31;100386.97;;;24.00;76.87
71149;BME280;59072;42.144;25.200;2023-06-22T05:45:57;100389.16;;;23.84;76.81
71149;BME280;59072;42.144;25.200;2023-06-22T05:48:22;100390.50;;;24.28;74.30
71149;BME280;59072;42.144;25.200;2023-06-22T05:50:48;100379.69;;;24.37;74.16
71149;BME280;59072;42.144;25.200;2023-06-22T05:53:13;100383.75;;;24.67;69.94
71149;BME280;59072;42.144;25.200;2023-06-22T05:55:39;100378.25;;;24.81;70.59
71149;BME280;59072;42.144;25.200;2023-06-22T05:58:04;100365.25;;;25.00;70.21
71149;BME280;59072;42.144;25.200;2023-06-22T06:00:30;100374.31;;;25.23;67.26
71149;BME280;59072;42.144;25.200;2023-06-22T06:02:56;100372.41;;;25.10;67.23
71149;BME280;59072;42.144;25.200;2023-06-22T06:05:22;100368.44;;;25.30;66.88
71149;BME280;59072;42.144;25.200;2023-06-22T06:07:49;100367.63;;;25.30;65.21
71149;BME280;59072;42.144;25.200;2023-06-22T06:10:14;100371.84;;;25.36;65.52
71149;BME280;59072;42.144;25.200;2023-06-22T06:12:40;100369.34;;;25.48;63.92
71149;BME280;59072;42.144;25.200;2023-06-22T06:15:06;100374.06;;;25.56;64.47
71149;BME280;59072;42.144;25.200;2023-06-22T06:17:31;100376.47;;;25.58;64.75
71149;BME280;59072;42.144;25.200;2023-06-22T06:19:58;100372.22;;;25.74;64.54
71149;BME280;59072;42.144;25.200;2023-06-22T06:22:24;100374.38;;;25.86;64.86
71149;BME280;59072;42.144;25.200;2023-06-22T06:24:49;100373.56;;;25.85;63.99
71149;BME280;59072;42.144;25.200;2023-06-22T06:27:15;100370.72;;;25.91;64.98
71149;BME280;59072;42.144;25.200;2023-06-22T06:29:43;100355.47;;;25.90;64.58
71149;BME280;59072;42.144;25.200;2023-06-22T06:32:11;100363.91;;;26.19;64.75
71149;BME280;59072;42.144;25.200;2023-06-22T06:34:36;100369.44;;;26.28;62.51
71149;BME280;59072;42.144;25.200;2023-06-22T06:37:02;100373.97;;;26.41;62.60
71149;BME280;59072;42.144;25.200;2023-06-22T06:39:27;100365.59;;;26.38;62.80
71149;BME280;59072;42.144;25.200;2023-06-22T06:41:52;100375.47;;;26.56;61.69
71149;BME280;59072;42.144;25.200;2023-06-22T06:44:18;100381.72;;;26.57;63.42
71149;BME280;59072;42.144;25.200;2023-06-22T06:46:44;100369.06;;;26.61;64.65
71149;BME280;59072;42.144;25.200;2023-06-22T06:49:10;100382.44;;;26.71;62.21
71149;BME280;59072;42.144;25.200;2023-06-22T06:51:35;100381.47;;;26.67;63.12
71149;BME280;59072;42.144;25.200;2023-06-22T06:54:01;100381.63;;;26.79;63.53
71149;BME280;59072;42.144;25.200;2023-06-22T06:56:28;100390.31;;;26.81;61.10
71149;BME280;59072;42.144;25.200;2023-06-22T06:58:54;100384.69;;;27.04;62.52
71149;BME280;59072;42.144;25.200;2023-06-22T07:01:20;100385.66;;;27.08;62.17
71149;BME280;59072;42.144;25.200;2023-06-22T07:03:46;100384.03;;;27.59;60.70
71149;BME280;59072;42.144;25.200;2023-06-22T07:06:11;100370.69;;;27.49;61.72
71149;BME280;59072;42.144;25.200;2023-06-22T07:08:36;100385.59;;;27.78;58.05
71149;BME280;59072;42.144;25.200;2023-06-22T07:11:02;100388.69;;;27.68;57.49
71149;BME280;59072;42.144;25.200;2023-06-22T07:13:27;100380.88;;;27.96;58.45
71149;BME280;59072;42.144;25.200;2023-06-22T07:15:53;100380.09;;;27.95;58.77
71149;BME280;59072;42.144;25.200;2023-06-22T07:18:18;100378.81;;;27.84;60.47
71149;BME280;59072;42.144;25.200;2023-06-22T07:20:44;100377.91;;;27.62;60.06
71149;BME280;59072;42.144;25.200;2023-06-22T07:23:09;100376.72;;;27.81;58.37
71149;BME280;59072;42.144;25.200;2023-06-22T07:25:35;100386.75;;;28.24;57.68
71149;BME280;59072;42.144;25.200;2023-06-22T07:28:05;100390.28;;;28.24;57.05
71149;BME280;59072;42.144;25.200;2023-06-22T07:30:31;100376.03;;;28.31;55.59
71149;BME280;59072;42.144;25.200;2023-06-22T07:32:58;100381.34;;;28.66;57.02
71149;BME280;59072;42.144;25.200;2023-06-22T07:35:24;100378.69;;;28.78;56.85
71149;BME280;59072;42.144;25.200;2023-06-22T07:37:49;100387.13;;;28.94;54.08
71149;BME280;59072;42.144;25.200;2023-06-22T07:40:15;100383.13;;;29.13;53.87
71149;BME280;59072;42.144;25.200;2023-06-22T07:42:40;100383.91;;;29.34;52.57
71149;BME280;59072;42.144;25.200;2023-06-22T07:45:07;100374.66;;;29.39;51.01
71149;BME280;59072;42.144;25.200;2023-06-22T07:47:34;100392.47;;;29.33;50.24
71149;BME280;59072;42.144;25.200;2023-06-22T07:50:01;100381.72;;;29.40;51.44
71149;BME280;59072;42.144;25.200;2023-06-22T07:52:30;100389.91;;;29.49;50.80
71149;BME280;59072;42.144;25.200;2023-06-22T07:54:55;100388.28;;;29.48;52.49
71149;BME280;59072;42.144;25.200;2023-06-22T07:57:21;100384.84;;;29.38;50.57
71149;BME280;59072;42.144;25.200;2023-06-22T07:59:47;100383.59;;;29.48;48.83
71149;BME280;59072;42.144;25.200;2023-06-22T08:02:12;100384.06;;;29.50;49.43
71149;BME280;59072;42.144;25.200;2023-06-22T08:04:38;100380.78;;;29.57;51.38
71149;BME280;59072;42.144;25.200;2023-06-22T08:07:04;100377.06;;;29.86;47.96
71149;BME280;59072;42.144;25.200;2023-06-22T08:09:31;100387.59;;;29.84;47.45
71149;BME280;59072;42.144;25.200;2023-06-22T08:11:57;100378.44;;;29.80;48.67
71149;BME280;59072;42.144;25.200;2023-06-22T08:14:25;100375.69;;;29.92;48.99
71149;BME280;59072;42.144;25.200;2023-06-22T08:16:50;100377.44;;;30.09;47.47
71149;BME280;59072;42.144;25.200;2023-06-22T08:19:15;100379.84;;;29.98;47.27
71149;BME280;59072;42.144;25.200;2023-06-22T08:21:42;100388.88;;;30.11;48.08
71149;BME280;59072;42.144;25.200;2023-06-22T08:24:07;100379.06;;;30.35;46.46
71149;BME280;59072;42.144;25.200;2023-06-22T08:26:33;100385.78;;;30.62;46.70
71149;BME280;59072;42.144;25.200;2023-06-22T08:29:03;100381.00;;;30.59;45.22
71149;BME280;59072;42.144;25.200;2023-06-22T08:31:28;100373.81;;;30.82;47.72
71149;BME280;59072;42.144;25.200;2023-06-22T08:33:53;100375.44;;;30.83;45.00
71149;BME280;59072;42.144;25.200;2023-06-22T08:36:19;100378.19;;;30.96;45.56
71149;BME280;59072;42.144;25.200;2023-06-22T08:38:44;100372.19;;;31.06;45.46
71149;BME280;59072;42.144;25.200;2023-06-22T08:41:10;100380.56;;;30.97;45.49
71149;BME280;59072;42.144;25.200;2023-06-22T08:43:36;100375.06;;;31.26;44.46
71149;BME280;59072;42.144;25.200;2023-06-22T08:46:01;100373.94;;;31.42;43.04
71149;BME280;59072;42.144;25.200;2023-06-22T08:48:28;100365.94;;;31.66;43.60
71149;BME280;59072;42.144;25.200;2023-06-22T08:50:53;100363.00;;;31.90;41.77
71149;BME280;59072;42.144;25.200;2023-06-22T08:53:19;100359.44;;;31.90;42.06
71149;BME280;59072;42.144;25.200;2023-06-22T08:55:44;100352.69;;;31.71;42.71
71149;BME280;59072;42.144;25.200;2023-06-22T08:58:10;100359.50;;;31.93;41.36
71149;BME280;59072;42.144;25.200;2023-06-22T09:00:35;100357.41;;;32.02;41.70
71149;BME280;59072;42.144;25.200;2023-06-22T09:03:01;100356.50;;;31.98;40.12
71149;BME280;59072;42.144;25.200;2023-06-22T09:05:26;100350.13;;;32.10;41.17
71149;BME280;59072;42.144;25.200;2023-06-22T09:07:52;100350.03;;;32.07;38.76
71149;BME280;59072;42.144;25.200;2023-06-22T09:10:20;100341.19;;;32.17;38.68
71149;BME280;59072;42.144;25.200;2023-06-22T09:12:45;100350.72;;;32.03;38.50
71149;BME280;59072;42.144;25.200;2023-06-22T09:15:11;100338.81;;;31.99;39.42
71149;BME280;59072;42.144;25.200;2023-06-22T09:17:36;100342.78;;;32.18;40.03
71149;BME280;59072;42.144;25.200;2023-06-22T09:20:03;100336.47;;;32.53;39.04
71149;BME280;59072;42.144;25.200;2023-06-22T09:22:31;100335.13;;;32.62;38.94
71149;BME280;59072;42.144;25.200;2023-06-22T09:24:57;100333.91;;;32.99;37.11
71149;BME280;59072;42.144;25.200;2023-06-22T09:27:22;100331.94;;;32.99;39.13
71149;BME280;59072;42.144;25.200;2023-06-22T09:29:49;100340.44;;;32.91;37.57
71149;BME280;59072;42.144;25.200;2023-06-22T09:32:14;100336.31;;;33.20;36.94
71149;BME280;59072;42.144;25.200;2023-06-22T09:34:40;100339.94;;;33.05;36.88
71149;BME280;59072;42.144;25.200;2023-06-22T09:37:06;100328.94;;;32.69;37.76
71149;BME280;59072;42.144;25.200;2023-06-22T09:39:31;100333.63;;;33.04;36.53
71149;BME280;59072;42.144;25.200;2023-06-22T09:41:59;100331.81;;;32.92;36.75
71149;BME280;59072;42.144;25.200;2023-06-22T09:44:25;100328.25;;;32.92;35.57
71149;BME280;59072;42.144;25.200;2023-06-22T09:46:50;100334.53;;;33.08;36.87
71149;BME280;59072;42.144;25.200;2023-06-22T09:49:16;100336.69;;;33.18;36.73
71149;BME280;59072;42.144;25.200;2023-06-22T09:51:41;100324.03;;;33.17;36.41
71149;BME280;59072;42.144;25.200;2023-06-22T09:54:06;100330.75;;;33.39;34.49
71149;BME280;59072;42.144;25.200;2023-06-22T09:56:32;100329.03;;;33.54;34.48
71149;BME280;59072;42.144;25.200;2023-06-22T09:58:57;100328.66;;;33.79;35.12
71149;BME280;59072;42.144;25.200;2023-06-22T10:01:23;100324.31;;;33.78;34.08
71149;BME280;59072;42.144;25.200;2023-06-22T10:03:49;100328.78;;;33.40;34.66
71149;BME280;59072;42.144;25.200;2023-06-22T10:06:15;100328.50;;;33.26;36.04
71149;BME280;59072;42.144;25.200;2023-06-22T10:08:41;100326.78;;;33.17;36.63
71149;BME280;59072;42.144;25.200;2023-06-22T10:11:06;100331.50;;;33.59;35.26
71149;BME280;59072;42.144;25.200;2023-06-22T10:13:32;100319.03;;;34.19;34.59
71149;BME280;59072;42.144;25.200;2023-06-22T10:15:57;100324.06;;;33.87;35.60
71149;BME280;59072;42.144;25.200;2023-06-22T10:18:23;100321.03;;;33.95;35.20
71149;BME280;59072;42.144;25.200;2023-06-22T10:20:50;100319.09;;;33.73;35.03
71149;BME280;59072;42.144;25.200;2023-06-22T10:23:21;100323.50;;;33.12;34.18
71149;BME280;59072;42.144;25.200;2023-06-22T10:25:47;100321.13;;;33.10;34.75
71149;BME280;59072;42.144;25.200;2023-06-22T10:28:16;100316.38;;;33.53;35.36
71149;BME280;59072;42.144;25.200;2023-06-22T10:30:41;100315.75;;;33.87;32.69
71149;BME280;59072;42.144;25.200;2023-06-22T10:33:08;100309.75;;;34.34;33.25
71149;BME280;59072;42.144;25.200;2023-06-22T10:35:34;100312.16;;;35.00;32.93
71149;BME280;59072;42.144;25.200;2023-06-22T10:38:00;100305.09;;;35.06;31.98
71149;BME280;59072;42.144;25.200;2023-06-22T10:40:25;100302.59;;;34.94;31.59
71149;BME280;59072;42.144;25.200;2023-06-22T10:42:51;100290.69;;;34.90;32.74
71149;BME280;59072;42.144;25.200;2023-06-22T10:45:16;100292.91;;;34.77;32.77
71149;BME280;59072;42.144;25.200;2023-06-22T10:47:42;100284.84;;;34.65;32.18
71149;BME280;59072;42.144;25.200;2023-06-22T10:50:08;100289.88;;;34.25;33.74
71149;BME280;59072;42.144;25.200;2023-06-22T10:52:33;100289.75;;;33.91;32.68
71149;BME280;59072;42.144;25.200;2023-06-22T10:54:59;100295.28;;;34.14;32.54
71149;BME280;59072;42.144;25.200;2023-06-22T10:57:24;100290.81;;;34.36;32.03
71149;BME280;59072;42.144;25.200;2023-06-22T10:59:50;100271.53;;;34.74;34.38
71149;BME280;59072;42.144;25.200;2023-06-22T11:02:15;100285.28;;;34.10;33.32
71149;BME280;59072;42.144;25.200;2023-06-22T11:04:40;100277.41;;;33.85;34.71
71149;BME280;59072;42.144;25.200;2023-06-22T11:07:06;100275.84;;;33.88;35.13
71149;BME280;59072;42.144;25.200;2023-06-22T11:09:31;100276.19;;;33.59;35.82
71149;BME280;59072;42.144;25.200;2023-06-22T11:11:57;100283.03;;;33.00;36.51
71149;BME280;59072;42.144;25.200;2023-06-22T11:14:24;100274.25;;;32.55;37.39
71149;BME280;59072;42.144;25.200;2023-06-22T11:16:50;100280.69;;;32.43;37.72
71149;BME280;59072;42.144;25.200;2023-06-22T11:19:15;100265.22;;;32.39;37.48
71149;BME280;59072;42.144;25.200;2023-06-22T11:21:41;100274.06;;;32.29;37.79
71149;BME280;59072;42.144;25.200;2023-06-22T11:24:06;100270.03;;;32.26;38.59
71149;BME280;59072;42.144;25.200;2023-06-22T11:26:32;100273.84;;;32.37;38.20
71149;BME280;59072;42.144;25.200;2023-06-22T11:28:58;100280.94;;;32.54;38.21
71149;BME280;59072;42.144;25.200;2023-06-22T11:31:24;100281.44;;;32.60;38.47
71149;BME280;59072;42.144;25.200;2023-06-22T11:33:49;100276.22;;;32.74;39.00
71149;BME280;59072;42.144;25.200;2023-06-22T11:36:15;100280.72;;;32.82;38.33
71149;BME280;59072;42.144;25.200;2023-06-22T11:38:41;100278.41;;;33.50;36.21
71149;BME280;59072;42.144;25.200;2023-06-22T11:41:08;100274.97;;;34.07;35.83
71149;BME280;59072;42.144;25.200;2023-06-22T11:43:34;100279.91;;;34.51;36.74
71149;BME280;59072;42.144;25.200;2023-06-22T11:46:00;100272.63;;;34.66;36.22
71149;BME280;59072;42.144;25.200;2023-06-22T11:48:26;100264.94;;;35.27;35.14
71149;BME280;59072;42.144;25.200;2023-06-22T11:50:52;100279.19;;;35.25;33.66
71149;BME280;59072;42.144;25.200;2023-06-22T11:53:17;100287.31;;;35.48;34.36
71149;BME280;59072;42.144;25.200;2023-06-22T11:55:46;100285.88;;;35.20;34.28
71149;BME280;59072;42.144;25.200;2023-06-22T11:58:11;100283.91;;;34.53;34.87
71149;BME280;59072;42.144;25.200;2023-06-22T12:00:37;100273.72;;;33.54;36.12
71149;BME280;59072;42.144;25.200;2023-06-22T12:03:03;100272.38;;;34.17;36.56
71149;BME280;59072;42.144;25.200;2023-06-22T12:05:28;100278.00;;;34.89;35.52
71149;BME280;59072;42.144;25.200;2023-06-22T12:07:54;100280.00;;;35.26;34.07
71149;BME280;59072;42.144;25.200;2023-06-22T12:10:21;100278.56;;;35.42;34.33
71149;BME280;59072;42.144;25.200;2023-06-22T12:12:46;100289.56;;;35.32;34.54
71149;BME280;59072;42.144;25.200;2023-06-22T12:15:12;100279.91;;;35.59;33.10
71149;BME280;59072;42.144;25.200;2023-06-22T12:17:37;100266.63;;;35.38;32.51
71149;BME280;59072;42.144;25.200;2023-06-22T12:20:03;100264.22;;;35.37;33.38
71149;BME280;59072;42.144;25.200;2023-06-22T12:22:33;100270.78;;;35.63;32.67
71149;BME280;59072;42.144;25.200;2023-06-22T12:24:59;100270.31;;;35.09;34.08
71149;BME280;59072;42.144;25.200;2023-06-22T12:27:25;100264.47;;;34.80;33.55
71149;BME280;59072;42.144;25.200;2023-06-22T12:29:50;100269.50;;;34.40;33.70
71149;BME280;59072;42.144;25.200;2023-06-22T12:32:16;100262.41;;;33.86;35.56
71149;BME280;59072;42.144;25.200;2023-06-22T12:34:42;100258.25;;;33.73;35.65
71149;BME280;59072;42.144;25.200;2023-06-22T12:37:08;100265.53;;;33.85;34.95
71149;BME280;59072;42.144;25.200;2023-06-22T12:39:33;100253.34;;;34.16;35.18
71149;BME280;59072;42.144;25.200;2023-06-22T12:41:59;100250.09;;;34.10;35.58
71149;BME280;59072;42.144;25.200;2023-06-22T12:44:25;100243.25;;;34.27;34.88